Time;durP1;ratioP1;P1;durP2;ratioP2;P2;SDS_P1;SDS_P2;PMS_P1;PMS_P2;Temp;Humidity;BMP_temperature;BMP_pressure;BME280_temperature;BME280_humidity;BME280_pressure;Samples;Min_cycle;Max_cycle;Signal;HPM_P1;HPM_P2
2022/06/01 00:00:57;;;;;;;50.85;37.45;;;;;;;15.84;100.00;99681.63;5001507;28;20043;-87
2022/06/01 00:03:25;;;;;;;47.55;36.38;;;;;;;15.82;100.00;99701.69;4996791;28;20084;-86
2022/06/01 00:05:53;;;;;;;48.20;35.30;;;;;;;15.81;100.00;99694.53;4974783;28;20447;-86
2022/06/01 00:08:20;;;;;;;48.72;37.10;;;;;;;15.77;100.00;99688.38;4972807;28;20050;-85
2022/06/01 00:10:46;;;;;;;50.85;37.28;;;;;;;15.76;100.00;99695.22;4990782;28;20038;-86
2022/06/01 00:13:12;;;;;;;53.45;39.33;;;;;;;15.73;100.00;99696.16;4988977;28;20507;-86
2022/06/01 00:15:37;;;;;;;54.97;38.88;;;;;;;15.71;100.00;99698.69;4972855;28;20042;-86
2022/06/01 00:18:03;;;;;;;53.33;38.88;;;;;;;15.66;100.00;99685.38;4988023;28;20416;-86
2022/06/01 00:20:29;;;;;;;50.58;37.33;;;;;;;15.74;100.00;99694.16;4990728;28;20074;-85
2022/06/01 00:22:56;;;;;;;52.85;38.50;;;;;;;15.68;100.00;99688.47;4971279;28;20129;-87
2022/06/01 00:25:22;;;;;;;58.13;40.72;;;;;;;15.71;100.00;99695.13;4971895;28;20100;-86
2022/06/01 00:27:48;;;;;;;54.28;39.47;;;;;;;15.73;100.00;99701.03;4988434;28;20041;-86
2022/06/01 00:30:16;;;;;;;52.28;39.08;;;;;;;15.69;100.00;99698.38;4972032;28;20065;-86
2022/06/01 00:32:41;;;;;;;50.80;39.05;;;;;;;15.64;100.00;99689.91;4971382;28;20046;-86
2022/06/01 00:35:08;;;;;;;53.33;39.15;;;;;;;15.66;100.00;99696.56;4987510;28;20092;-86
2022/06/01 00:37:34;;;;;;;53.50;37.75;;;;;;;15.68;100.00;99691.28;4971767;28;20038;-86
2022/06/01 00:39:59;;;;;;;52.53;38.47;;;;;;;15.61;100.00;99686.03;4990019;28;20044;-86
2022/06/01 00:42:28;;;;;;;55.42;39.90;;;;;;;15.60;100.00;99684.50;4988282;28;20117;-86
2022/06/01 00:44:54;;;;;;;54.97;39.67;;;;;;;15.58;100.00;99680.63;4956661;28;20042;-86
2022/06/01 00:47:21;;;;;;;56.70;40.33;;;;;;;15.61;100.00;99686.03;4988646;28;20049;-86
2022/06/01 00:49:51;;;;;;;69.93;41.30;;;;;;;15.46;100.00;99668.44;4953555;28;20166;-86
2022/06/01 00:52:35;;;;;;;57.13;41.95;;;;;;;15.48;100.00;99677.13;4971105;28;20058;-86
2022/06/01 00:55:13;;;;;;;60.17;42.47;;;;;;;15.48;100.00;99682.72;4974130;28;20034;-86
2022/06/01 00:57:41;;;;;;;59.67;42.05;;;;;;;15.53;100.00;99701.63;4989199;28;20038;-86
2022/06/01 01:00:15;;;;;;;56.85;41.25;;;;;;;15.53;100.00;99682.06;4970743;28;20108;-86
2022/06/01 01:02:41;;;;;;;57.47;42.08;;;;;;;15.49;100.00;99684.25;4989608;28;20034;-86
2022/06/01 01:05:09;;;;;;;57.45;41.60;;;;;;;15.52;100.00;99683.34;4991599;28;20411;-86
2022/06/01 01:07:36;;;;;;;56.95;41.45;;;;;;;15.60;100.00;99700.50;4991293;28;20724;-86
2022/06/01 01:10:03;;;;;;;59.58;42.17;;;;;;;15.58;100.00;99689.03;4975561;28;20130;-86
2022/06/01 01:12:55;;;;;;;60.15;41.45;;;;;;;15.55;100.00;99693.56;4992074;28;20412;-86
2022/06/01 01:15:14;;;;;;;58.97;42.60;;;;;;;15.55;100.00;99690.75;4992932;28;20133;-86
2022/06/01 01:17:40;;;;;;;60.72;41.75;;;;;;;15.59;100.00;99699.72;4992770;28;20122;-86
2022/06/01 01:20:06;;;;;;;58.00;40.90;;;;;;;15.53;100.00;99690.44;4991126;28;20038;-86
2022/06/01 01:23:01;;;;;;;57.28;41.70;;;;;;;15.54;100.00;99700.38;4991281;28;20049;-86
2022/06/01 01:25:32;;;;;;;60.00;42.20;;;;;;;15.55;100.00;99696.34;4950881;28;20082;-86
2022/06/01 01:28:01;;;;;;;59.75;42.63;;;;;;;15.43;100.00;99672.19;4974411;28;20499;-87
2022/06/01 01:30:37;;;;;;;59.67;42.55;;;;;;;15.48;100.00;99688.31;4992076;28;20055;-87
2022/06/01 01:33:11;;;;;;;57.75;41.50;;;;;;;15.49;100.00;99692.63;4993102;28;20522;-86
2022/06/01 01:35:36;;;;;;;59.53;42.42;;;;;;;15.48;100.00;99702.28;4989288;28;20549;-86
2022/06/01 01:38:06;;;;;;;55.92;42.28;;;;;;;15.54;100.00;99708.00;4993114;28;20049;-86
2022/06/01 01:40:32;;;;;;;57.15;41.78;;;;;;;15.57;100.00;99696.63;4989758;28;20117;-88
2022/06/01 01:42:58;;;;;;;61.45;42.60;;;;;;;15.50;100.00;99702.59;4990731;28;20050;-87
2022/06/01 01:45:30;;;;;;;60.20;43.25;;;;;;;15.44;100.00;99696.13;4975568;28;20046;-86
2022/06/01 01:47:56;;;;;;;57.88;41.30;;;;;;;15.53;100.00;99706.47;4975014;28;20042;-79
2022/06/01 01:50:23;;;;;;;59.72;42.55;;;;;;;15.55;100.00;99710.31;4991488;28;20093;-80
2022/06/01 01:52:49;;;;;;;57.33;40.38;;;;;;;15.57;100.00;99704.28;4974692;28;20034;-79
2022/06/01 01:55:27;;;;;;;56.95;42.03;;;;;;;15.59;100.00;99710.91;4993185;28;20531;-80
2022/06/01 01:58:08;;;;;;;55.33;40.10;;;;;;;15.70;100.00;99722.31;4991385;28;20073;-80
2022/06/01 02:00:43;;;;;;;57.53;40.78;;;;;;;15.75;100.00;99727.25;4989528;28;20049;-79
2022/06/01 02:03:22;;;;;;;54.83;41.53;;;;;;;15.75;100.00;99723.66;4973744;28;20561;-79
2022/06/01 02:06:09;;;;;;;53.92;40.75;;;;;;;15.84;100.00;99731.97;4981935;28;20046;-80
2022/06/01 02:08:55;;;;;;;53.70;40.55;;;;;;;15.88;100.00;99742.97;4979998;28;20539;-80
2022/06/01 02:14:19;;;;;;;56.95;41.10;;;;;;;15.73;100.00;99740.16;4981035;28;20431;-80
2022/06/01 02:16:58;;;;;;;57.97;40.78;;;;;;;15.76;100.00;99753.97;4995126;28;20038;-80
2022/06/01 02:19:27;;;;;;;55.70;39.85;;;;;;;15.77;100.00;99761.06;4991042;28;20492;-80
2022/06/01 02:21:54;;;;;;;58.90;41.00;;;;;;;15.76;100.00;99753.97;4979695;28;20043;-79
2022/06/01 02:24:21;;;;;;;58.85;40.55;;;;;;;15.75;100.00;99755.19;4996569;28;20034;-79
2022/06/01 02:26:49;;;;;;;56.85;39.80;;;;;;;15.82;100.00;99760.41;4996083;28;20049;-79
2022/06/01 02:29:20;;;;;;;58.75;39.80;;;;;;;15.84;100.00;99766.31;4992544;28;20046;-80
2022/06/01 02:31:48;;;;;;;58.50;40.20;;;;;;;15.84;100.00;99766.31;4957578;28;20057;-80
2022/06/01 02:34:14;;;;;;;62.47;42.22;;;;;;;15.82;100.00;99773.63;4986993;28;20037;-80
2022/06/01 02:36:40;;;;;;;54.65;38.13;;;;;;;15.86;100.00;99774.97;4980252;28;20071;-79
2022/06/01 02:39:07;;;;;;;46.83;31.63;;;;;;;15.83;100.00;99778.75;4991929;28;20053;-80
2022/06/01 02:44:18;;;;;;;32.17;25.08;;;;;;;15.81;100.00;99775.66;4992482;28;20053;-80
2022/06/01 02:46:44;;;;;;;26.23;21.35;;;;;;;15.86;100.00;99782.59;4995428;28;20039;-87
2022/06/01 02:49:09;;;;;;;20.08;16.75;;;;;;;15.83;100.00;99787.13;4995945;28;20084;-85
2022/06/01 02:51:35;;;;;;;20.20;15.23;;;;;;;15.77;100.00;99763.88;4995488;28;20038;-86
2022/06/01 02:54:01;;;;;;;15.63;12.65;;;;;;;15.82;100.00;99774.41;4978139;28;20473;-87
2022/06/01 02:56:26;;;;;;;14.43;9.55;;;;;;;15.78;100.00;99773.81;4991656;28;20043;-86
2022/06/01 02:58:52;;;;;;;12.48;8.95;;;;;;;15.77;100.00;99782.69;4991098;28;20125;-86
2022/06/01 03:01:18;;;;;;;10.52;7.63;;;;;;;15.72;100.00;99786.94;4987666;28;20126;-86
2022/06/01 03:03:43;;;;;;;11.68;6.90;;;;;;;15.69;100.00;99787.84;4998774;28;20121;-87
2022/06/01 03:06:09;;;;;;;9.40;6.72;;;;;;;15.68;100.00;99791.16;5010588;28;21708;-87
2022/06/01 03:08:34;;;;;;;8.73;6.07;;;;;;;15.62;100.00;99782.63;5007266;28;20050;-86
2022/06/01 03:11:00;;;;;;;6.00;5.13;;;;;;;15.60;100.00;99779.56;5008354;28;20037;-86
2022/06/01 03:13:26;;;;;;;6.63;4.75;;;;;;;15.61;100.00;99794.31;5008859;28;20121;-86
2022/06/01 03:15:53;;;;;;;5.63;4.00;;;;;;;15.54;100.00;99798.22;5010962;28;20415;-86
2022/06/01 03:18:19;;;;;;;6.43;4.50;;;;;;;15.57;100.00;99800.06;5007733;28;20038;-87
2022/06/01 03:20:45;;;;;;;5.63;3.90;;;;;;;15.51;100.00;99788.00;4990003;28;20041;-86
2022/06/01 03:23:10;;;;;;;4.97;3.70;;;;;;;15.53;100.00;99796.69;5008058;28;20058;-85
2022/06/01 03:25:37;;;;;;;7.05;3.75;;;;;;;15.44;100.00;99788.34;5006558;28;20038;-85
2022/06/01 03:28:05;;;;;;;5.63;3.40;;;;;;;15.48;100.00;99802.91;5005517;28;20030;-86
2022/06/01 03:30:32;;;;;;;4.32;3.10;;;;;;;15.49;100.00;99798.09;4986230;28;20038;-85
2022/06/01 03:32:58;;;;;;;4.40;3.20;;;;;;;15.47;100.00;99784.59;5004495;28;20097;-85
2022/06/01 03:35:26;;;;;;;4.15;3.05;;;;;;;15.49;100.00;99796.06;5012924;28;20057;-86
2022/06/01 03:37:52;;;;;;;3.65;2.85;;;;;;;15.41;100.00;99795.66;5006197;28;20037;-86
2022/06/01 03:40:22;;;;;;;4.65;2.80;;;;;;;15.44;100.00;99805.13;5007817;28;20044;-86
2022/06/01 03:42:48;;;;;;;4.90;3.13;;;;;;;15.46;100.00;99810.22;5008269;28;20049;-86
2022/06/01 03:47:58;;;;;;;4.32;3.00;;;;;;;15.47;100.00;99820.16;5004913;28;20052;-87
2022/06/01 03:50:25;;;;;;;4.05;2.80;;;;;;;15.54;99.96;99817.81;4991324;28;20041;-85
2022/06/01 03:52:53;;;;;;;8.23;3.17;;;;;;;15.58;100.00;99821.19;4992045;28;20057;-85
2022/06/01 03:55:19;;;;;;;5.43;2.65;;;;;;;15.62;100.00;99824.56;5006457;28;20038;-85
2022/06/01 03:57:45;;;;;;;4.78;2.58;;;;;;;15.66;98.54;99833.56;5009124;28;20042;-86
2022/06/01 04:00:14;;;;;;;4.30;2.63;;;;;;;15.73;98.53;99838.78;5009565;28;20403;-86
2022/06/01 04:02:40;;;;;;;3.35;2.72;;;;;;;15.74;98.49;99828.38;5009032;28;20125;-93
2022/06/01 04:05:07;;;;;;;3.60;2.22;;;;;;;15.73;99.07;99836.00;5008945;28;20046;-87
2022/06/01 04:07:33;;;;;;;3.00;2.50;;;;;;;15.66;99.12;99839.16;5005225;28;20065;-87
2022/06/01 04:09:58;;;;;;;2.90;2.50;;;;;;;15.58;99.98;99846.34;4991303;28;20436;-87
2022/06/01 04:12:24;;;;;;;3.42;2.50;;;;;;;15.61;99.91;99850.97;5010162;28;20525;-87
2022/06/01 04:14:49;;;;;;;4.65;2.90;;;;;;;15.59;99.85;99849.94;5004677;28;20042;-86
2022/06/01 04:17:15;;;;;;;3.10;2.58;;;;;;;15.60;100.00;99862.66;5003920;28;20582;-87
2022/06/01 04:19:41;;;;;;;3.47;2.60;;;;;;;15.53;99.81;99863.78;5006369;28;20030;-87
2022/06/01 04:22:08;;;;;;;3.67;2.50;;;;;;;15.55;99.99;99869.69;5003147;28;20232;-87
2022/06/01 04:24:34;;;;;;;4.60;2.60;;;;;;;15.58;100.00;99879.13;5005792;28;20038;-85
2022/06/01 04:27:00;;;;;;;3.20;2.40;;;;;;;15.59;100.00;99873.06;4983441;28;20081;-85
2022/06/01 04:29:26;;;;;;;4.28;2.72;;;;;;;15.61;100.00;99876.16;5008767;28;20139;-85
2022/06/01 04:32:05;;;;;;;3.75;2.70;;;;;;;15.63;99.76;99873.66;4990824;28;20136;-85
2022/06/01 04:34:30;;;;;;;5.22;2.60;;;;;;;15.60;100.00;99874.63;5008341;28;20054;-85
2022/06/01 04:36:56;;;;;;;3.28;2.30;;;;;;;15.66;100.00;99885.91;5008956;28;20041;-85
2022/06/01 04:39:22;;;;;;;4.38;2.60;;;;;;;15.69;100.00;99879.38;5012518;28;20177;-85
2022/06/01 04:41:48;;;;;;;4.30;2.50;;;;;;;15.66;100.00;99872.72;5012436;28;20038;-84
2022/06/01 04:44:14;;;;;;;3.47;2.40;;;;;;;15.74;100.00;99871.09;5011883;28;20064;-83
2022/06/01 04:46:39;;;;;;;5.00;2.85;;;;;;;15.80;99.94;99866.41;5013060;28;20038;-83
2022/06/01 04:49:07;;;;;;;2.80;2.58;;;;;;;15.77;99.20;99872.94;5011497;28;20074;-83
2022/06/01 04:51:34;;;;;;;12.88;3.17;;;;;;;15.91;99.50;99879.06;5004775;28;20052;-83
2022/06/01 04:53:59;;;;;;;3.45;2.65;;;;;;;15.99;98.51;99880.25;5012088;28;20049;-83
2022/06/01 04:56:25;;;;;;;4.60;2.25;;;;;;;16.07;97.99;99875.84;4993354;28;20561;-83
2022/06/01 04:58:53;;;;;;;3.10;2.30;;;;;;;16.21;97.64;99877.91;4990698;28;20173;-83
2022/06/01 05:01:19;;;;;;;6.18;2.70;;;;;;;16.35;96.46;99877.16;5004827;28;20074;-83
2022/06/01 05:03:45;;;;;;;4.07;2.75;;;;;;;16.48;95.36;99874.06;4988646;28;20068;-83
2022/06/01 05:06:10;;;;;;;3.88;2.50;;;;;;;16.59;94.83;99875.06;5005982;28;20049;-82
2022/06/01 05:08:36;;;;;;;3.45;2.30;;;;;;;16.68;94.11;99872.19;5011942;28;20053;-83
2022/06/01 05:11:02;;;;;;;2.72;2.22;;;;;;;16.80;91.81;99861.94;5012817;28;20105;-83
2022/06/01 05:13:28;;;;;;;4.15;3.50;;;;;;;16.95;92.60;99867.53;5013340;28;20109;-83
2022/06/01 05:15:56;;;;;;;2.85;2.25;;;;;;;17.16;92.15;99871.94;4996191;28;20053;-83
2022/06/01 05:18:22;;;;;;;3.67;2.15;;;;;;;17.32;90.27;99857.41;4979417;28;20042;-83
2022/06/01 05:20:49;;;;;;;4.18;2.42;;;;;;;17.33;88.34;99878.59;5013711;28;20042;-83
2022/06/01 05:23:18;;;;;;;2.67;1.98;;;;;;;17.31;88.61;99872.69;4996058;28;20038;-83
2022/06/01 05:25:45;;;;;;;3.33;2.17;;;;;;;17.10;88.59;99854.28;4996208;28;20072;-83
2022/06/01 05:28:12;;;;;;;2.28;1.77;;;;;;;17.05;88.75;99866.19;5013451;28;20483;-83
2022/06/01 05:30:38;;;;;;;2.80;1.80;;;;;;;17.17;89.04;99865.09;4979393;28;20034;-83
2022/06/01 05:33:03;;;;;;;3.08;2.10;;;;;;;17.19;88.58;99868.16;5013333;28;20538;-82
2022/06/01 05:35:29;;;;;;;2.50;1.80;;;;;;;17.39;88.90;99862.59;5013264;28;20034;-82
2022/06/01 05:37:55;;;;;;;3.53;1.80;;;;;;;17.55;86.79;99867.69;5012945;28;20045;-83
2022/06/01 05:40:21;;;;;;;2.63;1.80;;;;;;;17.68;86.86;99864.56;4995974;28;20049;-83
2022/06/01 05:42:46;;;;;;;2.83;1.90;;;;;;;17.95;84.72;99877.44;4998805;28;20042;-83
2022/06/01 05:45:12;;;;;;;2.85;1.90;;;;;;;18.12;84.23;99875.56;5012634;28;20050;-83
2022/06/01 05:47:38;;;;;;;2.00;1.77;;;;;;;18.29;82.05;99882.16;5010760;28;20074;-83
2022/06/01 05:50:06;;;;;;;2.97;1.60;;;;;;;18.45;81.40;99890.00;4993595;28;20026;-83
2022/06/01 05:52:31;;;;;;;2.30;1.67;;;;;;;18.69;80.82;99886.16;4995135;28;20049;-83
2022/06/01 05:54:57;;;;;;;2.70;1.75;;;;;;;18.78;79.64;99889.59;5012478;28;20554;-83
2022/06/01 05:57:22;;;;;;;2.22;1.67;;;;;;;18.99;79.02;99904.34;5011208;28;20073;-83
2022/06/01 05:59:49;;;;;;;1.83;1.35;;;;;;;19.20;77.96;99908.59;4993975;28;20038;-83
2022/06/01 06:02:14;;;;;;;2.88;1.60;;;;;;;19.31;78.77;99894.63;5010481;28;20033;-83
2022/06/01 06:04:40;;;;;;;2.85;1.55;;;;;;;19.45;75.27;99902.16;5009024;28;20580;-83
2022/06/01 06:07:05;;;;;;;2.22;1.70;;;;;;;19.48;75.62;99923.66;4992615;28;20045;-83
2022/06/01 06:09:31;;;;;;;3.22;1.75;;;;;;;19.55;74.49;99934.44;4992333;28;20041;-83
2022/06/01 06:11:56;;;;;;;3.33;1.75;;;;;;;19.65;74.03;99925.81;4993602;28;20041;-83
2022/06/01 06:14:22;;;;;;;1.50;1.40;;;;;;;19.78;74.35;99935.34;4993829;28;20030;-82
2022/06/01 06:16:48;;;;;;;2.80;1.60;;;;;;;19.89;73.45;99923.41;5012003;28;20041;-83
2022/06/01 06:19:16;;;;;;;2.03;1.65;;;;;;;20.05;73.19;99931.16;5012716;28;20041;-82
2022/06/01 06:21:42;;;;;;;2.17;1.70;;;;;;;20.14;72.20;99933.75;5012308;28;20046;-82
2022/06/01 06:24:13;;;;;;;2.03;1.60;;;;;;;20.03;72.25;99928.06;5012518;28;20049;-83
2022/06/01 06:26:41;;;;;;;3.75;1.60;;;;;;;20.22;71.79;99948.13;4994645;28;20417;-83
2022/06/01 06:29:08;;;;;;;2.28;1.70;;;;;;;20.37;71.84;99934.66;5012331;28;20049;-83
2022/06/01 06:31:36;;;;;;;3.15;1.70;;;;;;;20.42;69.34;99934.66;4994793;28;20137;-83
2022/06/01 06:34:02;;;;;;;2.20;1.70;;;;;;;20.35;70.44;99929.50;5010668;28;20045;-83
2022/06/01 06:36:28;;;;;;;3.25;1.63;;;;;;;20.37;70.44;99935.41;4994710;28;20050;-83
2022/06/01 06:38:54;;;;;;;2.67;1.65;;;;;;;20.46;70.26;99937.25;4994328;28;20033;-83
2022/06/01 06:41:21;;;;;;;2.92;1.30;;;;;;;20.59;69.30;99931.09;4994604;28;20459;-82
2022/06/01 06:43:47;;;;;;;3.85;1.80;;;;;;;20.80;69.87;99932.44;5012117;28;20049;-83
2022/06/01 06:46:15;;;;;;;1.92;1.60;;;;;;;21.04;68.26;99934.78;5012017;28;20105;-83
2022/06/01 06:48:42;;;;;;;3.78;1.60;;;;;;;21.14;66.89;99945.34;4994332;28;20101;-83
2022/06/01 06:51:08;;;;;;;3.17;1.73;;;;;;;21.11;66.39;99935.03;5011938;28;20649;-83
2022/06/01 06:53:34;;;;;;;2.38;1.60;;;;;;;21.21;65.58;99949.69;5011920;28;20038;-83
2022/06/01 06:56:00;;;;;;;1.85;1.60;;;;;;;21.19;66.80;99946.63;5011888;28;20495;-83
2022/06/01 06:58:26;;;;;;;3.53;1.65;;;;;;;21.38;66.60;99951.25;5011577;28;20034;-83
2022/06/01 07:00:52;;;;;;;3.22;1.60;;;;;;;21.62;66.51;99947.09;5011024;28;20104;-83
2022/06/01 07:03:18;;;;;;;3.17;1.45;;;;;;;21.80;65.02;99955.00;5004841;28;20058;-83
2022/06/01 07:08:28;;;;;;;2.95;1.80;;;;;;;21.83;65.97;99954.00;4991809;28;20055;-83
2022/06/01 07:10:55;;;;;;;3.65;1.95;;;;;;;22.08;65.11;99952.91;4992258;28;20101;-83
2022/06/01 07:13:21;;;;;;;2.10;1.60;;;;;;;22.10;65.22;99955.22;4992093;28;20488;-83
2022/06/01 07:15:47;;;;;;;2.78;1.67;;;;;;;22.19;65.83;99949.28;4992164;28;20081;-83
2022/06/01 07:18:13;;;;;;;2.17;1.70;;;;;;;22.36;65.52;99946.41;4992351;28;20112;-83
2022/06/01 07:20:39;;;;;;;3.33;1.80;;;;;;;22.55;65.57;99955.81;4991695;28;20173;-83
2022/06/01 07:23:05;;;;;;;3.42;1.70;;;;;;;22.68;65.68;99956.00;4992013;28;20381;-83
2022/06/01 07:25:30;;;;;;;2.17;1.65;;;;;;;22.65;63.33;99960.63;4974223;28;20049;-83
2022/06/01 07:27:57;;;;;;;2.83;1.70;;;;;;;22.49;65.08;99964.31;4974663;28;20046;-82
2022/06/01 07:30:23;;;;;;;3.38;1.80;;;;;;;22.59;64.27;99956.31;4991591;28;20065;-83
2022/06/01 07:32:49;;;;;;;2.53;1.92;;;;;;;22.94;62.71;99959.19;4991856;28;20403;-83
2022/06/01 07:35:16;;;;;;;3.35;1.75;;;;;;;23.06;62.93;99957.84;4991772;28;20042;-82
2022/06/01 07:43:12;;;;;;;2.88;1.67;;;;;;;23.55;61.72;99970.06;4985797;28;20034;-82
2022/06/01 07:45:40;;;;;;;2.28;1.80;;;;;;;23.67;59.24;99970.72;4991033;28;20038;-82
2022/06/01 07:48:07;;;;;;;3.42;1.88;;;;;;;23.75;59.13;99966.03;4991603;28;20042;-82
2022/06/01 07:50:33;;;;;;;2.88;1.90;;;;;;;23.88;60.13;99974.66;4989840;28;20448;-82
2022/06/01 07:53:02;;;;;;;2.35;1.83;;;;;;;23.85;58.75;99978.56;4966812;28;20049;-85
2022/06/01 07:55:28;;;;;;;2.60;1.85;;;;;;;23.51;58.12;99992.25;4990081;28;20034;-85
2022/06/01 07:57:54;;;;;;;3.72;1.73;;;;;;;23.43;58.85;99982.03;4991404;28;20050;-84
2022/06/01 08:00:20;;;;;;;2.28;1.80;;;;;;;23.59;58.33;99983.94;4991288;28;20408;-85
2022/06/01 08:02:46;;;;;;;2.45;1.77;;;;;;;23.62;58.70;99977.22;4990901;28;20496;-85
2022/06/01 08:05:14;;;;;;;2.20;1.80;;;;;;;23.72;58.11;99981.25;4991354;28;20038;-84
2022/06/01 08:07:40;;;;;;;1.85;1.48;;;;;;;23.77;58.67;99979.66;4991113;28;20070;-85
2022/06/01 08:10:07;;;;;;;3.03;1.70;;;;;;;24.11;58.80;99989.34;4990747;28;20042;-85
2022/06/01 08:15:17;;;;;;;4.85;1.63;;;;;;;24.89;54.30;99983.50;4982351;28;20042;-85
2022/06/01 08:17:44;;;;;;;3.00;1.65;;;;;;;24.95;51.19;99984.19;4989181;28;20038;-85
2022/06/01 08:20:13;;;;;;;2.85;1.70;;;;;;;25.15;52.28;99999.13;4990760;28;20041;-85
2022/06/01 08:22:40;;;;;;;1.58;1.42;;;;;;;25.32;52.45;99993.94;4970265;28;20606;-85
2022/06/01 08:25:07;;;;;;;2.95;1.70;;;;;;;25.37;53.04;99993.09;4987560;28;20129;-85
2022/06/01 08:27:33;;;;;;;2.40;1.83;;;;;;;25.61;52.49;99998.66;4990897;28;20516;-85
2022/06/01 08:29:59;;;;;;;1.95;1.60;;;;;;;25.70;49.49;99992.56;4990950;28;20066;-85
2022/06/01 08:32:24;;;;;;;2.55;1.60;;;;;;;25.70;46.56;100009.63;4973685;28;20461;-85
2022/06/01 08:34:50;;;;;;;3.45;1.75;;;;;;;25.36;47.48;100008.59;4974704;28;20061;-85
2022/06/01 08:37:16;;;;;;;2.63;1.80;;;;;;;25.34;50.40;100005.53;4941978;28;20074;-85
2022/06/01 08:39:41;;;;;;;4.30;2.00;;;;;;;25.51;49.98;100001.13;4991143;28;20397;-85
2022/06/01 08:42:12;;;;;;;2.17;1.50;;;;;;;25.73;48.69;100002.84;4991423;28;20141;-85
2022/06/01 08:44:39;;;;;;;3.15;1.70;;;;;;;25.72;47.35;100012.66;4989684;28;20042;-85
2022/06/01 08:47:07;;;;;;;2.75;1.60;;;;;;;25.60;46.66;99994.28;4991026;28;20038;-85
2022/06/01 08:49:35;;;;;;;2.10;1.67;;;;;;;25.60;47.07;100010.59;4988695;28;20520;-85
2022/06/01 08:52:01;;;;;;;1.48;1.33;;;;;;;25.57;47.74;99995.38;4989336;28;20053;-85
2022/06/01 08:54:27;;;;;;;2.67;1.67;;;;;;;25.79;49.75;100006.38;4989259;28;20041;-85
2022/06/01 08:57:01;;;;;;;3.15;1.80;;;;;;;26.11;48.30;100008.38;4957181;28;20042;-85
2022/06/01 09:00:08;;;;;;;2.03;1.50;;;;;;;26.35;47.63;99999.66;4973484;28;20038;-86
2022/06/01 09:02:52;;;;;;;2.33;1.45;;;;;;;26.51;45.38;100007.06;4892684;29;20056;-82
2022/06/01 09:05:44;;;;;;;3.17;1.63;;;;;;;26.27;46.10;100015.84;4911246;29;20079;-83
2022/06/01 09:08:18;;;;;;;3.05;1.65;;;;;;;26.44;45.31;100013.44;4988881;28;20451;-85
2022/06/01 09:11:05;;;;;;;4.20;1.65;;;;;;;26.42;45.33;100004.66;5009877;28;20443;-85
2022/06/01 09:13:37;;;;;;;3.72;2.03;;;;;;;26.17;44.52;100009.00;5009809;28;20054;-85
2022/06/01 09:16:10;;;;;;;2.30;1.70;;;;;;;26.17;45.28;100011.84;5010307;28;20458;-85
2022/06/01 09:18:48;;;;;;;2.10;1.50;;;;;;;26.41;45.42;100011.66;4991875;28;20427;-85
2022/06/01 09:24:24;;;;;;;4.55;2.03;;;;;;;26.42;45.40;99993.28;5008729;28;20056;-85
2022/06/01 09:26:57;;;;;;;2.08;1.60;;;;;;;26.71;42.94;100009.22;5013502;28;20060;-85
2022/06/01 09:29:28;;;;;;;3.35;1.60;;;;;;;26.68;43.25;100013.19;5013632;28;20038;-85
2022/06/01 09:32:00;;;;;;;4.22;1.73;;;;;;;26.46;42.87;100016.47;5013109;28;20050;-83
2022/06/01 09:34:47;;;;;;;3.60;1.60;;;;;;;26.58;44.75;100017.00;4995767;28;20041;-82
2022/06/01 09:37:18;;;;;;;3.10;1.77;;;;;;;26.49;44.18;100012.53;5007982;28;20046;-84
2022/06/01 09:40:39;;;;;;;2.83;1.60;;;;;;;26.64;43.77;100014.81;5012825;28;20470;-85
2022/06/01 09:43:04;;;;;;;2.28;1.50;;;;;;;27.03;44.11;99996.91;4979329;28;20471;-85
2022/06/01 09:45:45;;;;;;;3.72;1.70;;;;;;;27.65;42.91;100029.09;4995308;28;20120;-85
2022/06/01 09:48:30;;;;;;;2.25;1.60;;;;;;;27.70;40.94;100013.94;4989350;28;20044;-85
2022/06/01 09:51:04;;;;;;;1.58;1.40;;;;;;;27.73;41.24;100015.69;4995578;28;20052;-85
2022/06/01 09:53:36;;;;;;;2.55;1.45;;;;;;;27.44;41.25;100016.91;4995425;28;20545;-85
2022/06/01 09:56:03;;;;;;;2.97;1.70;;;;;;;27.33;39.49;100011.47;4994663;28;20052;-85
2022/06/01 10:06:54;;;;;;;2.65;1.50;;;;;;;27.76;39.27;100000.31;5012710;28;20052;-84
2022/06/01 10:09:25;;;;;;;3.13;1.67;;;;;;;27.86;39.63;100012.00;5012643;28;20030;-85
2022/06/01 10:11:54;;;;;;;2.30;1.70;;;;;;;27.68;38.69;100005.19;4994956;28;20046;-85
2022/06/01 10:14:21;;;;;;;2.13;1.40;;;;;;;27.82;39.94;99998.06;4995446;28;20038;-84
2022/06/01 10:17:22;;;;;;;1.45;1.33;;;;;;;27.89;38.23;99998.69;4978782;28;20503;-85
2022/06/01 10:19:56;;;;;;;3.00;1.52;;;;;;;27.19;38.38;99995.75;5006727;28;20038;-85
2022/06/01 10:22:33;;;;;;;1.80;1.35;;;;;;;27.26;37.72;99997.91;5005375;28;20046;-85
2022/06/01 10:25:11;;;;;;;3.78;1.55;;;;;;;27.25;40.20;100002.09;4994840;28;20451;-85
2022/06/01 10:27:42;;;;;;;2.35;1.63;;;;;;;27.61;39.38;100005.91;4994864;28;20049;-85
2022/06/01 10:30:13;;;;;;;2.40;1.70;;;;;;;27.97;39.91;100000.28;5011875;28;20149;-85
2022/06/01 10:32:59;;;;;;;3.25;1.80;;;;;;;28.41;39.42;100009.72;4994489;28;20097;-85
2022/06/01 10:35:44;;;;;;;4.32;1.60;;;;;;;28.29;37.13;99994.25;5010890;28;20116;-85
2022/06/01 10:38:29;;;;;;;2.72;1.60;;;;;;;28.04;38.83;99993.88;4994755;28;20073;-85
2022/06/01 10:40:57;;;;;;;1.65;1.55;;;;;;;28.11;37.63;99992.41;4994130;28;20034;-84
2022/06/01 10:43:36;;;;;;;1.85;1.70;;;;;;;28.34;36.42;100004.75;5012102;28;20034;-85
2022/06/01 10:46:11;;;;;;;4.90;2.13;;;;;;;28.19;37.94;99999.69;4977526;28;20514;-85
2022/06/01 10:48:46;;;;;;;3.42;1.92;;;;;;;28.24;37.23;99995.16;5007864;28;20049;-85
2022/06/01 10:51:15;;;;;;;4.35;3.42;;;;;;;28.47;36.53;100007.47;4992816;28;20037;-85
2022/06/01 10:53:50;;;;;;;3.05;2.13;;;;;;;28.68;38.29;99993.09;4989987;28;20038;-85
2022/06/01 10:56:20;;;;;;;2.60;1.73;;;;;;;28.44;35.69;99990.69;4990325;28;20037;-85
2022/06/01 10:58:45;;;;;;;1.50;1.40;;;;;;;27.87;36.23;99990.69;5010258;28;20096;-85
2022/06/01 11:01:21;;;;;;;2.85;1.48;;;;;;;28.17;36.53;99996.66;5010513;28;20037;-85
2022/06/01 11:04:09;;;;;;;2.63;1.50;;;;;;;28.17;36.60;99995.88;4992676;28;20113;-82
2022/06/01 11:06:35;;;;;;;3.42;1.80;;;;;;;28.11;34.94;99987.47;5009495;28;20058;-82
2022/06/01 11:09:11;;;;;;;3.13;1.58;;;;;;;28.32;35.25;99990.25;5010470;28;20063;-82
2022/06/01 11:11:59;;;;;;;2.58;1.60;;;;;;;28.33;35.13;99991.81;4992365;28;20560;-82
2022/06/01 11:14:35;;;;;;;2.22;1.60;;;;;;;28.45;36.44;99990.16;5007366;28;20129;-82
2022/06/01 11:17:06;;;;;;;2.20;1.60;;;;;;;28.53;35.09;99982.41;5008718;28;20054;-82
2022/06/01 11:19:59;;;;;;;3.03;1.65;;;;;;;28.69;34.87;99989.72;5008849;28;20769;-82
2022/06/01 11:22:30;;;;;;;3.30;1.67;;;;;;;29.04;33.67;99987.34;5010692;28;20045;-82
2022/06/01 11:25:17;;;;;;;3.53;1.40;;;;;;;28.96;33.18;99989.41;5001466;28;20046;-82
2022/06/01 11:28:07;;;;;;;2.13;1.40;;;;;;;29.05;32.88;99997.44;4993072;28;20487;-82
2022/06/01 11:31:03;;;;;;;2.13;1.40;;;;;;;28.82;31.57;99976.63;5010853;28;20038;-82
2022/06/01 11:33:40;;;;;;;2.70;1.77;;;;;;;28.57;32.80;99976.31;4987226;28;20089;-82
2022/06/01 11:36:31;;;;;;;2.83;1.60;;;;;;;28.29;32.50;99985.69;4986653;28;20149;-82
2022/06/01 11:39:12;;;;;;;2.08;1.55;;;;;;;28.56;33.14;99969.06;4993198;28;20491;-85
2022/06/01 11:41:41;;;;;;;4.28;1.75;;;;;;;29.07;32.72;99974.81;5010693;28;20053;-85
2022/06/01 11:44:18;;;;;;;1.70;1.33;;;;;;;28.83;30.71;99966.75;4993474;28;20040;-87
2022/06/01 11:46:53;;;;;;;2.63;2.00;;;;;;;28.75;32.40;99975.28;5007355;28;20050;-86
2022/06/01 11:49:59;;;;;;;1.90;1.42;;;;;;;29.02;32.52;99978.59;5009146;28;20184;-86
2022/06/01 11:52:25;;;;;;;2.47;1.48;;;;;;;29.22;31.43;99971.97;5004489;28;20050;-85
2022/06/01 11:55:05;;;;;;;3.00;1.77;;;;;;;29.25;31.28;99970.06;5001503;28;20121;-85
2022/06/01 11:58:03;;;;;;;2.88;1.60;;;;;;;28.91;32.81;99981.81;5008719;28;20078;-86
2022/06/01 12:00:36;;;;;;;2.42;1.50;;;;;;;28.78;32.54;99965.59;4997936;28;20053;-82
2022/06/01 12:03:17;;;;;;;2.88;1.85;;;;;;;28.92;31.92;99960.47;5002475;28;20084;-82
2022/06/01 12:06:13;;;;;;;1.75;1.52;;;;;;;29.06;33.47;99956.16;4989795;28;20042;-82
2022/06/01 12:08:51;;;;;;;3.05;1.50;;;;;;;29.31;31.66;99951.47;4958666;28;20054;-82